sensor_id;sensor_type;location;lat;lon;timestamp;P1;durP1;ratioP1;P2;durP2;ratioP2
20014;SDS011;61787;42.022;23.078;2023-06-22T00:00:50;13.82;;;12.43;;
20014;SDS011;61787;42.022;23.078;2023-06-22T00:01:52;14.35;;;12.90;;
20014;SDS011;61787;42.022;23.078;2023-06-22T00:02:54;15.27;;;12.60;;
20014;SDS011;61787;42.022;23.078;2023-06-22T00:03:55;15.85;;;12.93;;
20014;SDS011;61787;42.022;23.078;2023-06-22T00:04:57;15.13;;;13.52;;
20014;SDS011;61787;42.022;23.078;2023-06-22T00:05:59;14.05;;;12.75;;
20014;SDS011;61787;42.022;23.078;2023-06-22T00:07:00;14.70;;;13.18;;
20014;SDS011;61787;42.022;23.078;2023-06-22T00:08:03;14.48;;;12.52;;
20014;SDS011;61787;42.022;23.078;2023-06-22T00:09:08;15.07;;;13.27;;
20014;SDS011;61787;42.022;23.078;2023-06-22T00:10:11;15.35;;;13.95;;
20014;SDS011;61787;42.022;23.078;2023-06-22T00:11:13;15.82;;;14.07;;
20014;SDS011;61787;42.022;23.078;2023-06-22T00:12:14;17.55;;;14.38;;
20014;SDS011;61787;42.022;23.078;2023-06-22T00:13:16;17.27;;;14.57;;
20014;SDS011;61787;42.022;23.078;2023-06-22T00:14:19;14.80;;;13.40;;
20014;SDS011;61787;42.022;23.078;2023-06-22T00:15:20;14.40;;;13.00;;
20014;SDS011;61787;42.022;23.078;2023-06-22T00:16:22;16.50;;;13.98;;
20014;SDS011;61787;42.022;23.078;2023-06-22T00:17:24;14.10;;;12.65;;
20014;SDS011;61787;42.022;23.078;2023-06-22T00:18:25;13.85;;;12.40;;
20014;SDS011;61787;42.022;23.078;2023-06-22T00:19:29;15.23;;;12.50;;
20014;SDS011;61787;42.022;23.078;2023-06-22T00:20:31;14.18;;;12.82;;
20014;SDS011;61787;42.022;23.078;2023-06-22T00:21:33;14.18;;;12.73;;
20014;SDS011;61787;42.022;23.078;2023-06-22T00:22:35;12.23;;;10.98;;
20014;SDS011;61787;42.022;23.078;2023-06-22T00:23:40;12.85;;;11.55;;
20014;SDS011;61787;42.022;23.078;2023-06-22T00:24:42;13.93;;;12.43;;
20014;SDS011;61787;42.022;23.078;2023-06-22T00:25:44;13.10;;;11.70;;
20014;SDS011;61787;42.022;23.078;2023-06-22T00:26:46;13.32;;;12.02;;
20014;SDS011;61787;42.022;23.078;2023-06-22T00:27:49;12.32;;;11.13;;
20014;SDS011;61787;42.022;23.078;2023-06-22T00:28:51;12.73;;;10.35;;
20014;SDS011;61787;42.022;23.078;2023-06-22T00:29:53;11.07;;;9.98;;
20014;SDS011;61787;42.022;23.078;2023-06-22T00:30:54;12.73;;;10.55;;
20014;SDS011;61787;42.022;23.078;2023-06-22T00:31:56;11.25;;;9.45;;
20014;SDS011;61787;42.022;23.078;2023-06-22T00:32:58;11.73;;;10.52;;
20014;SDS011;61787;42.022;23.078;2023-06-22T00:34:00;10.52;;;9.52;;
20014;SDS011;61787;42.022;23.078;2023-06-22T00:35:01;11.13;;;9.98;;
20014;SDS011;61787;42.022;23.078;2023-06-22T00:36:03;12.30;;;9.98;;
20014;SDS011;61787;42.022;23.078;2023-06-22T00:37:05;10.02;;;9.07;;
20014;SDS011;61787;42.022;23.078;2023-06-22T00:38:07;11.30;;;9.80;;
20014;SDS011;61787;42.022;23.078;2023-06-22T00:39:09;11.15;;;8.93;;
20014;SDS011;61787;42.022;23.078;2023-06-22T00:40:11;10.40;;;8.63;;
20014;SDS011;61787;42.022;23.078;2023-06-22T00:41:13;9.80;;;8.90;;
20014;SDS011;61787;42.022;23.078;2023-06-22T00:42:14;10.40;;;9.40;;
20014;SDS011;61787;42.022;23.078;2023-06-22T00:43:16;10.93;;;9.65;;
20014;SDS011;61787;42.022;23.078;2023-06-22T00:44:18;11.00;;;9.90;;
20014;SDS011;61787;42.022;23.078;2023-06-22T00:45:19;10.93;;;9.82;;
20014;SDS011;61787;42.022;23.078;2023-06-22T00:46:22;10.10;;;9.13;;
20014;SDS011;61787;42.022;23.078;2023-06-22T00:47:24;11.57;;;8.80;;
20014;SDS011;61787;42.022;23.078;2023-06-22T00:48:26;9.60;;;8.70;;
20014;SDS011;61787;42.022;23.078;2023-06-22T00:49:28;10.05;;;8.20;;
20014;SDS011;61787;42.022;23.078;2023-06-22T00:50:30;8.90;;;7.97;;
20014;SDS011;61787;42.022;23.078;2023-06-22T00:51:37;9.35;;;8.45;;
20014;SDS011;61787;42.022;23.078;2023-06-22T00:52:39;9.05;;;8.15;;
20014;SDS011;61787;42.022;23.078;2023-06-22T00:53:45;11.40;;;8.48;;
20014;SDS011;61787;42.022;23.078;2023-06-22T00:54:47;10.10;;;8.20;;
20014;SDS011;61787;42.022;23.078;2023-06-22T00:55:50;8.18;;;7.38;;
20014;SDS011;61787;42.022;23.078;2023-06-22T00:56:54;8.52;;;7.68;;
20014;SDS011;61787;42.022;23.078;2023-06-22T00:57:57;9.15;;;7.85;;
20014;SDS011;61787;42.022;23.078;2023-06-22T00:58:59;8.60;;;7.80;;
20014;SDS011;61787;42.022;23.078;2023-06-22T01:00:04;9.40;;;7.72;;
20014;SDS011;61787;42.022;23.078;2023-06-22T01:01:10;8.65;;;7.70;;
20014;SDS011;61787;42.022;23.078;2023-06-22T01:02:12;8.10;;;7.35;;
20014;SDS011;61787;42.022;23.078;2023-06-22T01:03:14;8.57;;;7.70;;
20014;SDS011;61787;42.022;23.078;2023-06-22T01:04:18;8.05;;;7.35;;
20014;SDS011;61787;42.022;23.078;2023-06-22T01:05:20;8.80;;;7.90;;
20014;SDS011;61787;42.022;23.078;2023-06-22T01:06:25;8.35;;;7.55;;
20014;SDS011;61787;42.022;23.078;2023-06-22T01:07:42;9.75;;;7.93;;
20014;SDS011;61787;42.022;23.078;2023-06-22T01:09:06;8.75;;;7.65;;
20014;SDS011;61787;42.022;23.078;2023-06-22T01:10:21;8.80;;;6.97;;
20014;SDS011;61787;42.022;23.078;2023-06-22T01:11:26;8.13;;;7.32;;
20014;SDS011;61787;42.022;23.078;2023-06-22T01:12:34;8.05;;;7.25;;
20014;SDS011;61787;42.022;23.078;2023-06-22T01:13:45;8.68;;;7.78;;
20014;SDS011;61787;42.022;23.078;2023-06-22T01:15:08;8.23;;;7.40;;
20014;SDS011;61787;42.022;23.078;2023-06-22T01:17:27;8.18;;;7.47;;
20014;SDS011;61787;42.022;23.078;2023-06-22T01:18:31;8.98;;;7.10;;
20014;SDS011;61787;42.022;23.078;2023-06-22T01:19:39;10.05;;;8.20;;
20014;SDS011;61787;42.022;23.078;2023-06-22T01:20:56;8.13;;;7.32;;
20014;SDS011;61787;42.022;23.078;2023-06-22T01:21:59;8.18;;;7.07;;
20014;SDS011;61787;42.022;23.078;2023-06-22T01:24:32;8.60;;;7.70;;
20014;SDS011;61787;42.022;23.078;2023-06-22T01:26:02;9.18;;;7.35;;
20014;SDS011;61787;42.022;23.078;2023-06-22T01:29:34;9.50;;;8.50;;
20014;SDS011;61787;42.022;23.078;2023-06-22T01:30:38;10.02;;;7.90;;
20014;SDS011;61787;42.022;23.078;2023-06-22T01:31:42;8.43;;;7.55;;
20014;SDS011;61787;42.022;23.078;2023-06-22T01:32:46;8.35;;;7.55;;
20014;SDS011;61787;42.022;23.078;2023-06-22T01:33:57;9.80;;;8.43;;
20014;SDS011;61787;42.022;23.078;2023-06-22T01:35:03;9.88;;;8.30;;
20014;SDS011;61787;42.022;23.078;2023-06-22T01:36:07;10.10;;;8.85;;
20014;SDS011;61787;42.022;23.078;2023-06-22T01:37:09;10.00;;;8.95;;
20014;SDS011;61787;42.022;23.078;2023-06-22T01:38:11;9.70;;;8.60;;
20014;SDS011;61787;42.022;23.078;2023-06-22T01:39:13;9.88;;;8.52;;
20014;SDS011;61787;42.022;23.078;2023-06-22T01:40:15;9.20;;;8.30;;
20014;SDS011;61787;42.022;23.078;2023-06-22T01:41:17;10.88;;;9.18;;
20014;SDS011;61787;42.022;23.078;2023-06-22T01:42:20;10.30;;;9.18;;
20014;SDS011;61787;42.022;23.078;2023-06-22T01:43:23;9.68;;;8.65;;
20014;SDS011;61787;42.022;23.078;2023-06-22T01:44:26;9.85;;;8.85;;
20014;SDS011;61787;42.022;23.078;2023-06-22T01:45:29;9.80;;;8.55;;
20014;SDS011;61787;42.022;23.078;2023-06-22T01:46:31;9.90;;;8.65;;
20014;SDS011;61787;42.022;23.078;2023-06-22T01:47:34;12.57;;;8.40;;
20014;SDS011;61787;42.022;23.078;2023-06-22T01:48:36;10.43;;;9.30;;
20014;SDS011;61787;42.022;23.078;2023-06-22T01:49:38;12.05;;;10.20;;
20014;SDS011;61787;42.022;23.078;2023-06-22T01:50:39;12.50;;;11.20;;
20014;SDS011;61787;42.022;23.078;2023-06-22T01:51:41;12.40;;;10.63;;
20014;SDS011;61787;42.022;23.078;2023-06-22T01:52:43;12.07;;;10.45;;
20014;SDS011;61787;42.022;23.078;2023-06-22T01:53:45;11.25;;;10.02;;
20014;SDS011;61787;42.022;23.078;2023-06-22T01:54:49;10.98;;;9.80;;
20014;SDS011;61787;42.022;23.078;2023-06-22T01:55:50;11.13;;;10.00;;
20014;SDS011;61787;42.022;23.078;2023-06-22T01:56:52;10.77;;;9.65;;
20014;SDS011;61787;42.022;23.078;2023-06-22T01:57:54;10.48;;;9.52;;
20014;SDS011;61787;42.022;23.078;2023-06-22T01:59:44;11.65;;;10.40;;
20014;SDS011;61787;42.022;23.078;2023-06-22T02:00:28;11.57;;;10.18;;
20014;SDS011;61787;42.022;23.078;2023-06-22T02:01:41;11.48;;;10.38;;
20014;SDS011;61787;42.022;23.078;2023-06-22T02:03:55;17.23;;;11.40;;
20014;SDS011;61787;42.022;23.078;2023-06-22T02:05:07;12.70;;;11.27;;
20014;SDS011;61787;42.022;23.078;2023-06-22T02:06:17;15.05;;;11.77;;
20014;SDS011;61787;42.022;23.078;2023-06-22T02:07:26;12.88;;;11.10;;
20014;SDS011;61787;42.022;23.078;2023-06-22T02:08:36;14.73;;;11.15;;
20014;SDS011;61787;42.022;23.078;2023-06-22T02:09:42;12.88;;;11.20;;
20014;SDS011;61787;42.022;23.078;2023-06-22T02:10:46;12.20;;;11.00;;
20014;SDS011;61787;42.022;23.078;2023-06-22T02:11:50;11.27;;;9.95;;
20014;SDS011;61787;42.022;23.078;2023-06-22T02:12:56;10.13;;;9.13;;
20014;SDS011;61787;42.022;23.078;2023-06-22T02:14:00;11.30;;;10.15;;
20014;SDS011;61787;42.022;23.078;2023-06-22T02:15:02;10.48;;;9.43;;
20014;SDS011;61787;42.022;23.078;2023-06-22T02:16:04;11.13;;;9.77;;
20014;SDS011;61787;42.022;23.078;2023-06-22T02:17:08;9.90;;;9.00;;
20014;SDS011;61787;42.022;23.078;2023-06-22T02:18:10;10.45;;;9.13;;
20014;SDS011;61787;42.022;23.078;2023-06-22T02:19:12;10.98;;;9.70;;
20014;SDS011;61787;42.022;23.078;2023-06-22T02:20:14;10.75;;;9.38;;
20014;SDS011;61787;42.022;23.078;2023-06-22T02:21:19;10.88;;;9.77;;
20014;SDS011;61787;42.022;23.078;2023-06-22T02:22:21;10.00;;;8.80;;
20014;SDS011;61787;42.022;23.078;2023-06-22T02:23:23;11.25;;;9.60;;
20014;SDS011;61787;42.022;23.078;2023-06-22T02:24:24;11.45;;;10.25;;
20014;SDS011;61787;42.022;23.078;2023-06-22T02:25:26;14.57;;;10.20;;
20014;SDS011;61787;42.022;23.078;2023-06-22T02:26:28;14.07;;;11.60;;
20014;SDS011;61787;42.022;23.078;2023-06-22T02:27:30;11.85;;;10.65;;
20014;SDS011;61787;42.022;23.078;2023-06-22T02:28:31;13.18;;;11.40;;
20014;SDS011;61787;42.022;23.078;2023-06-22T02:29:33;14.02;;;11.65;;
20014;SDS011;61787;42.022;23.078;2023-06-22T02:30:35;12.60;;;11.30;;
20014;SDS011;61787;42.022;23.078;2023-06-22T02:31:36;12.70;;;11.43;;
20014;SDS011;61787;42.022;23.078;2023-06-22T02:32:38;12.27;;;10.98;;
20014;SDS011;61787;42.022;23.078;2023-06-22T02:33:43;12.65;;;11.23;;
20014;SDS011;61787;42.022;23.078;2023-06-22T02:34:47;12.52;;;11.32;;
20014;SDS011;61787;42.022;23.078;2023-06-22T02:35:49;12.60;;;11.30;;
20014;SDS011;61787;42.022;23.078;2023-06-22T02:36:50;12.07;;;10.88;;
20014;SDS011;61787;42.022;23.078;2023-06-22T02:37:53;14.10;;;10.85;;
20014;SDS011;61787;42.022;23.078;2023-06-22T02:38:55;13.40;;;10.88;;
20014;SDS011;61787;42.022;23.078;2023-06-22T02:40:02;11.48;;;10.15;;
20014;SDS011;61787;42.022;23.078;2023-06-22T02:41:05;12.15;;;9.57;;
20014;SDS011;61787;42.022;23.078;2023-06-22T02:42:08;10.05;;;9.00;;
20014;SDS011;61787;42.022;23.078;2023-06-22T02:43:12;15.30;;;9.32;;
20014;SDS011;61787;42.022;23.078;2023-06-22T02:44:14;8.35;;;7.63;;
20014;SDS011;61787;42.022;23.078;2023-06-22T02:45:16;11.15;;;8.23;;
20014;SDS011;61787;42.022;23.078;2023-06-22T02:46:17;8.98;;;8.00;;
20014;SDS011;61787;42.022;23.078;2023-06-22T02:47:19;8.70;;;7.82;;
20014;SDS011;61787;42.022;23.078;2023-06-22T02:48:21;8.95;;;8.05;;
20014;SDS011;61787;42.022;23.078;2023-06-22T02:49:22;9.02;;;8.13;;
20014;SDS011;61787;42.022;23.078;2023-06-22T02:50:24;9.68;;;8.68;;
20014;SDS011;61787;42.022;23.078;2023-06-22T02:51:26;10.32;;;8.48;;
20014;SDS011;61787;42.022;23.078;2023-06-22T02:52:28;9.52;;;8.63;;
20014;SDS011;61787;42.022;23.078;2023-06-22T02:53:30;9.77;;;8.77;;
20014;SDS011;61787;42.022;23.078;2023-06-22T02:54:31;9.80;;;8.85;;
20014;SDS011;61787;42.022;23.078;2023-06-22T02:55:34;10.45;;;9.32;;
20014;SDS011;61787;42.022;23.078;2023-06-22T02:56:36;13.45;;;9.45;;
20014;SDS011;61787;42.022;23.078;2023-06-22T02:57:37;9.85;;;8.75;;
20014;SDS011;61787;42.022;23.078;2023-06-22T02:58:45;10.43;;;9.43;;
20014;SDS011;61787;42.022;23.078;2023-06-22T02:59:47;11.77;;;9.90;;
20014;SDS011;61787;42.022;23.078;2023-06-22T03:00:48;10.43;;;9.43;;
20014;SDS011;61787;42.022;23.078;2023-06-22T03:01:54;12.50;;;10.30;;
20014;SDS011;61787;42.022;23.078;2023-06-22T03:02:55;11.20;;;9.57;;
20014;SDS011;61787;42.022;23.078;2023-06-22T03:03:58;11.27;;;10.13;;
20014;SDS011;61787;42.022;23.078;2023-06-22T03:05:00;13.48;;;10.52;;
20014;SDS011;61787;42.022;23.078;2023-06-22T03:06:02;13.15;;;9.85;;
20014;SDS011;61787;42.022;23.078;2023-06-22T03:07:04;13.02;;;9.57;;
20014;SDS011;61787;42.022;23.078;2023-06-22T03:08:07;12.25;;;10.77;;
20014;SDS011;61787;42.022;23.078;2023-06-22T03:09:09;12.77;;;10.25;;
20014;SDS011;61787;42.022;23.078;2023-06-22T03:10:11;12.73;;;10.48;;
20014;SDS011;61787;42.022;23.078;2023-06-22T03:11:14;12.50;;;10.35;;
20014;SDS011;61787;42.022;23.078;2023-06-22T03:12:15;13.63;;;10.43;;
20014;SDS011;61787;42.022;23.078;2023-06-22T03:13:17;13.10;;;9.85;;
20014;SDS011;61787;42.022;23.078;2023-06-22T03:14:18;12.60;;;9.30;;
20014;SDS011;61787;42.022;23.078;2023-06-22T03:15:20;12.77;;;10.95;;
20014;SDS011;61787;42.022;23.078;2023-06-22T03:16:23;12.50;;;10.95;;
20014;SDS011;61787;42.022;23.078;2023-06-22T03:17:25;12.45;;;11.02;;
20014;SDS011;61787;42.022;23.078;2023-06-22T03:18:26;11.45;;;10.27;;
20014;SDS011;61787;42.022;23.078;2023-06-22T03:19:29;12.77;;;11.35;;
20014;SDS011;61787;42.022;23.078;2023-06-22T03:20:32;15.80;;;11.45;;
20014;SDS011;61787;42.022;23.078;2023-06-22T03:21:35;12.25;;;10.73;;
20014;SDS011;61787;42.022;23.078;2023-06-22T03:22:40;11.93;;;10.50;;
20014;SDS011;61787;42.022;23.078;2023-06-22T03:23:43;12.63;;;11.07;;
20014;SDS011;61787;42.022;23.078;2023-06-22T03:24:44;16.10;;;11.02;;
20014;SDS011;61787;42.022;23.078;2023-06-22T03:25:46;11.88;;;10.68;;
20014;SDS011;61787;42.022;23.078;2023-06-22T03:26:48;11.48;;;9.98;;
20014;SDS011;61787;42.022;23.078;2023-06-22T03:27:50;11.18;;;10.05;;
20014;SDS011;61787;42.022;23.078;2023-06-22T03:28:51;11.68;;;10.18;;
20014;SDS011;61787;42.022;23.078;2023-06-22T03:29:53;11.88;;;9.70;;
20014;SDS011;61787;42.022;23.078;2023-06-22T03:30:56;10.77;;;9.15;;
20014;SDS011;61787;42.022;23.078;2023-06-22T03:31:59;11.57;;;9.77;;
20014;SDS011;61787;42.022;23.078;2023-06-22T03:33:00;11.35;;;9.57;;
20014;SDS011;61787;42.022;23.078;2023-06-22T03:34:02;10.48;;;9.38;;
20014;SDS011;61787;42.022;23.078;2023-06-22T03:35:04;12.45;;;9.23;;
20014;SDS011;61787;42.022;23.078;2023-06-22T03:36:07;11.35;;;9.73;;
20014;SDS011;61787;42.022;23.078;2023-06-22T03:37:09;12.35;;;11.10;;
20014;SDS011;61787;42.022;23.078;2023-06-22T03:38:13;11.13;;;10.02;;
20014;SDS011;61787;42.022;23.078;2023-06-22T03:39:14;11.73;;;10.60;;
20014;SDS011;61787;42.022;23.078;2023-06-22T03:40:16;11.70;;;10.50;;
20014;SDS011;61787;42.022;23.078;2023-06-22T03:41:18;15.07;;;10.95;;
20014;SDS011;61787;42.022;23.078;2023-06-22T03:42:19;13.00;;;10.68;;
20014;SDS011;61787;42.022;23.078;2023-06-22T03:43:21;12.68;;;10.40;;
20014;SDS011;61787;42.022;23.078;2023-06-22T03:44:23;10.68;;;9.57;;
20014;SDS011;61787;42.022;23.078;2023-06-22T03:45:24;11.65;;;9.55;;
20014;SDS011;61787;42.022;23.078;2023-06-22T03:46:26;11.23;;;9.57;;
20014;SDS011;61787;42.022;23.078;2023-06-22T03:47:28;11.88;;;9.48;;
20014;SDS011;61787;42.022;23.078;2023-06-22T03:48:29;11.30;;;9.82;;
20014;SDS011;61787;42.022;23.078;2023-06-22T03:49:31;11.48;;;9.63;;
20014;SDS011;61787;42.022;23.078;2023-06-22T03:50:33;10.52;;;9.38;;
20014;SDS011;61787;42.022;23.078;2023-06-22T03:51:34;11.88;;;10.68;;
20014;SDS011;61787;42.022;23.078;2023-06-22T03:52:36;14.80;;;10.82;;
20014;SDS011;61787;42.022;23.078;2023-06-22T03:53:38;12.32;;;10.65;;
20014;SDS011;61787;42.022;23.078;2023-06-22T03:54:39;12.55;;;11.25;;
20014;SDS011;61787;42.022;23.078;2023-06-22T03:55:47;12.73;;;10.95;;
20014;SDS011;61787;42.022;23.078;2023-06-22T03:56:51;12.52;;;11.23;;
20014;SDS011;61787;42.022;23.078;2023-06-22T03:57:52;13.32;;;11.93;;
20014;SDS011;61787;42.022;23.078;2023-06-22T03:58:55;13.38;;;11.52;;
20014;SDS011;61787;42.022;23.078;2023-06-22T03:59:57;13.05;;;11.65;;
20014;SDS011;61787;42.022;23.078;2023-06-22T04:00:59;12.73;;;11.35;;
20014;SDS011;61787;42.022;23.078;2023-06-22T04:02:01;13.50;;;11.63;;
20014;SDS011;61787;42.022;23.078;2023-06-22T04:03:03;13.20;;;11.85;;
20014;SDS011;61787;42.022;23.078;2023-06-22T04:04:05;13.43;;;12.00;;
20014;SDS011;61787;42.022;23.078;2023-06-22T04:05:08;12.82;;;11.15;;
20014;SDS011;61787;42.022;23.078;2023-06-22T04:06:10;12.95;;;11.57;;
20014;SDS011;61787;42.022;23.078;2023-06-22T04:07:12;13.38;;;11.93;;
20014;SDS011;61787;42.022;23.078;2023-06-22T04:08:14;12.63;;;11.30;;
20014;SDS011;61787;42.022;23.078;2023-06-22T04:09:16;13.32;;;11.85;;
20014;SDS011;61787;42.022;23.078;2023-06-22T04:10:17;13.00;;;11.20;;
20014;SDS011;61787;42.022;23.078;2023-06-22T04:11:19;11.98;;;10.77;;
20014;SDS011;61787;42.022;23.078;2023-06-22T04:12:21;13.30;;;11.43;;
20014;SDS011;61787;42.022;23.078;2023-06-22T04:13:22;11.50;;;10.40;;
20014;SDS011;61787;42.022;23.078;2023-06-22T04:14:24;11.05;;;9.95;;
20014;SDS011;61787;42.022;23.078;2023-06-22T04:15:25;11.50;;;10.20;;
20014;SDS011;61787;42.022;23.078;2023-06-22T04:16:27;11.38;;;10.23;;
20014;SDS011;61787;42.022;23.078;2023-06-22T04:17:29;10.10;;;9.20;;
20014;SDS011;61787;42.022;23.078;2023-06-22T04:18:30;10.85;;;9.73;;
20014;SDS011;61787;42.022;23.078;2023-06-22T04:19:32;11.57;;;9.38;;
20014;SDS011;61787;42.022;23.078;2023-06-22T04:20:34;11.63;;;9.57;;
20014;SDS011;61787;42.022;23.078;2023-06-22T04:21:36;10.77;;;9.55;;
20014;SDS011;61787;42.022;23.078;2023-06-22T04:22:38;12.45;;;10.02;;
20014;SDS011;61787;42.022;23.078;2023-06-22T04:23:40;10.95;;;9.85;;
20014;SDS011;61787;42.022;23.078;2023-06-22T04:24:42;11.38;;;10.18;;
20014;SDS011;61787;42.022;23.078;2023-06-22T04:25:43;11.63;;;10.10;;
20014;SDS011;61787;42.022;23.078;2023-06-22T04:26:45;12.40;;;10.35;;
20014;SDS011;61787;42.022;23.078;2023-06-22T04:27:48;11.23;;;10.02;;
20014;SDS011;61787;42.022;23.078;2023-06-22T04:28:49;9.95;;;8.98;;
20014;SDS011;61787;42.022;23.078;2023-06-22T04:29:53;10.27;;;7.68;;
20014;SDS011;61787;42.022;23.078;2023-06-22T04:30:54;10.60;;;8.50;;
20014;SDS011;61787;42.022;23.078;2023-06-22T04:31:59;10.27;;;8.07;;
20014;SDS011;61787;42.022;23.078;2023-06-22T04:33:04;8.68;;;7.00;;
20014;SDS011;61787;42.022;23.078;2023-06-22T04:34:07;11.38;;;8.60;;
20014;SDS011;61787;42.022;23.078;2023-06-22T04:35:09;8.77;;;7.90;;
20014;SDS011;61787;42.022;23.078;2023-06-22T04:36:12;10.82;;;7.65;;
20014;SDS011;61787;42.022;23.078;2023-06-22T04:37:16;9.30;;;8.13;;
20014;SDS011;61787;42.022;23.078;2023-06-22T04:38:18;12.35;;;8.48;;
20014;SDS011;61787;42.022;23.078;2023-06-22T04:39:20;10.07;;;7.78;;
20014;SDS011;61787;42.022;23.078;2023-06-22T04:40:22;9.00;;;8.10;;
20014;SDS011;61787;42.022;23.078;2023-06-22T04:41:24;12.02;;;8.68;;
20014;SDS011;61787;42.022;23.078;2023-06-22T04:42:26;12.23;;;8.75;;
20014;SDS011;61787;42.022;23.078;2023-06-22T04:43:28;8.93;;;7.95;;
20014;SDS011;61787;42.022;23.078;2023-06-22T04:44:31;13.43;;;9.45;;
20014;SDS011;61787;42.022;23.078;2023-06-22T04:45:33;13.95;;;10.40;;
20014;SDS011;61787;42.022;23.078;2023-06-22T04:46:35;17.27;;;12.57;;
20014;SDS011;61787;42.022;23.078;2023-06-22T04:47:39;15.95;;;11.88;;
20014;SDS011;61787;42.022;23.078;2023-06-22T04:48:41;17.63;;;12.80;;
20014;SDS011;61787;42.022;23.078;2023-06-22T04:49:43;14.00;;;12.20;;
20014;SDS011;61787;42.022;23.078;2023-06-22T04:50:45;18.45;;;12.77;;
20014;SDS011;61787;42.022;23.078;2023-06-22T04:51:47;14.60;;;13.10;;
20014;SDS011;61787;42.022;23.078;2023-06-22T04:52:50;14.85;;;12.65;;
20014;SDS011;61787;42.022;23.078;2023-06-22T04:53:52;17.33;;;12.88;;
20014;SDS011;61787;42.022;23.078;2023-06-22T04:54:53;19.42;;;13.20;;
20014;SDS011;61787;42.022;23.078;2023-06-22T04:55:59;16.58;;;13.80;;
20014;SDS011;61787;42.022;23.078;2023-06-22T04:57:04;22.73;;;13.07;;
20014;SDS011;61787;42.022;23.078;2023-06-22T04:58:11;19.23;;;13.40;;
20014;SDS011;61787;42.022;23.078;2023-06-22T04:59:14;17.08;;;13.65;;
20014;SDS011;61787;42.022;23.078;2023-06-22T05:00:16;17.30;;;12.82;;
20014;SDS011;61787;42.022;23.078;2023-06-22T05:01:20;17.90;;;13.45;;
20014;SDS011;61787;42.022;23.078;2023-06-22T05:02:23;17.42;;;13.55;;
20014;SDS011;61787;42.022;23.078;2023-06-22T05:03:29;21.83;;;14.50;;
20014;SDS011;61787;42.022;23.078;2023-06-22T05:04:31;21.42;;;14.63;;
20014;SDS011;61787;42.022;23.078;2023-06-22T05:05:33;25.42;;;14.45;;
20014;SDS011;61787;42.022;23.078;2023-06-22T05:06:36;22.42;;;14.02;;
20014;SDS011;61787;42.022;23.078;2023-06-22T05:07:42;19.27;;;13.77;;
20014;SDS011;61787;42.022;23.078;2023-06-22T05:08:44;25.35;;;14.40;;
20014;SDS011;61787;42.022;23.078;2023-06-22T05:09:46;20.83;;;13.93;;
20014;SDS011;61787;42.022;23.078;2023-06-22T05:10:48;20.63;;;14.38;;
20014;SDS011;61787;42.022;23.078;2023-06-22T05:12:05;24.08;;;14.85;;
20014;SDS011;61787;42.022;23.078;2023-06-22T05:13:11;21.63;;;14.73;;
20014;SDS011;61787;42.022;23.078;2023-06-22T05:14:13;19.90;;;14.43;;
20014;SDS011;61787;42.022;23.078;2023-06-22T05:15:15;19.55;;;14.25;;
20014;SDS011;61787;42.022;23.078;2023-06-22T05:16:16;24.08;;;15.13;;
20014;SDS011;61787;42.022;23.078;2023-06-22T05:17:18;18.63;;;15.10;;
20014;SDS011;61787;42.022;23.078;2023-06-22T05:18:20;23.27;;;14.75;;
20014;SDS011;61787;42.022;23.078;2023-06-22T05:19:25;20.52;;;14.60;;
20014;SDS011;61787;42.022;23.078;2023-06-22T05:20:32;18.42;;;13.85;;
20014;SDS011;61787;42.022;23.078;2023-06-22T05:21:37;19.88;;;13.48;;
20014;SDS011;61787;42.022;23.078;2023-06-22T05:22:39;17.17;;;13.73;;
20014;SDS011;61787;42.022;23.078;2023-06-22T05:23:42;17.85;;;13.98;;
20014;SDS011;61787;42.022;23.078;2023-06-22T05:24:44;18.35;;;13.40;;
20014;SDS011;61787;42.022;23.078;2023-06-22T05:25:45;14.68;;;12.15;;
20014;SDS011;61787;42.022;23.078;2023-06-22T05:26:47;17.83;;;14.20;;
20014;SDS011;61787;42.022;23.078;2023-06-22T05:27:49;17.05;;;13.05;;
20014;SDS011;61787;42.022;23.078;2023-06-22T05:28:52;14.57;;;13.02;;
20014;SDS011;61787;42.022;23.078;2023-06-22T05:29:54;16.13;;;12.77;;
20014;SDS011;61787;42.022;23.078;2023-06-22T05:30:56;17.52;;;12.68;;
20014;SDS011;61787;42.022;23.078;2023-06-22T05:31:57;17.75;;;12.10;;
20014;SDS011;61787;42.022;23.078;2023-06-22T05:32:59;16.33;;;12.50;;
20014;SDS011;61787;42.022;23.078;2023-06-22T05:34:01;16.10;;;12.73;;
20014;SDS011;61787;42.022;23.078;2023-06-22T05:35:03;14.88;;;12.98;;
20014;SDS011;61787;42.022;23.078;2023-06-22T05:36:05;21.13;;;13.07;;
20014;SDS011;61787;42.022;23.078;2023-06-22T05:37:07;17.80;;;12.77;;
20014;SDS011;61787;42.022;23.078;2023-06-22T05:38:10;18.20;;;12.98;;
20014;SDS011;61787;42.022;23.078;2023-06-22T05:39:12;16.75;;;13.30;;
20014;SDS011;61787;42.022;23.078;2023-06-22T05:40:16;16.45;;;12.60;;
20014;SDS011;61787;42.022;23.078;2023-06-22T05:41:18;18.95;;;13.40;;
20014;SDS011;61787;42.022;23.078;2023-06-22T05:42:19;18.25;;;13.73;;
20014;SDS011;61787;42.022;23.078;2023-06-22T05:43:21;18.02;;;12.38;;
20014;SDS011;61787;42.022;23.078;2023-06-22T05:44:23;16.05;;;12.82;;
20014;SDS011;61787;42.022;23.078;2023-06-22T05:45:25;17.63;;;13.27;;
20014;SDS011;61787;42.022;23.078;2023-06-22T05:46:26;18.83;;;13.60;;
20014;SDS011;61787;42.022;23.078;2023-06-22T05:47:28;21.10;;;13.30;;
20014;SDS011;61787;42.022;23.078;2023-06-22T05:48:29;14.35;;;12.57;;
20014;SDS011;61787;42.022;23.078;2023-06-22T05:49:31;19.20;;;12.88;;
20014;SDS011;61787;42.022;23.078;2023-06-22T05:50:34;18.77;;;13.30;;
20014;SDS011;61787;42.022;23.078;2023-06-22T05:51:36;17.92;;;13.63;;
20014;SDS011;61787;42.022;23.078;2023-06-22T05:52:37;15.77;;;13.02;;
20014;SDS011;61787;42.022;23.078;2023-06-22T05:53:39;16.70;;;12.40;;
20014;SDS011;61787;42.022;23.078;2023-06-22T05:54:40;16.88;;;12.48;;
20014;SDS011;61787;42.022;23.078;2023-06-22T05:55:43;14.90;;;11.40;;
20014;SDS011;61787;42.022;23.078;2023-06-22T05:56:44;21.13;;;13.35;;
20014;SDS011;61787;42.022;23.078;2023-06-22T05:57:46;13.18;;;11.77;;
20014;SDS011;61787;42.022;23.078;2023-06-22T05:58:47;17.90;;;12.35;;
20014;SDS011;61787;42.022;23.078;2023-06-22T05:59:49;16.63;;;12.50;;
20014;SDS011;61787;42.022;23.078;2023-06-22T06:00:51;15.43;;;12.07;;
20014;SDS011;61787;42.022;23.078;2023-06-22T06:01:52;17.23;;;12.55;;
20014;SDS011;61787;42.022;23.078;2023-06-22T06:02:54;15.25;;;11.43;;
20014;SDS011;61787;42.022;23.078;2023-06-22T06:03:56;18.55;;;11.60;;
20014;SDS011;61787;42.022;23.078;2023-06-22T06:04:58;20.15;;;11.93;;
20014;SDS011;61787;42.022;23.078;2023-06-22T06:06:04;15.48;;;11.55;;
20014;SDS011;61787;42.022;23.078;2023-06-22T06:07:06;15.57;;;11.65;;
20014;SDS011;61787;42.022;23.078;2023-06-22T06:08:08;12.43;;;11.13;;
20014;SDS011;61787;42.022;23.078;2023-06-22T06:09:12;12.35;;;10.75;;
20014;SDS011;61787;42.022;23.078;2023-06-22T06:10:14;14.95;;;11.30;;
20014;SDS011;61787;42.022;23.078;2023-06-22T06:11:15;11.73;;;10.60;;
20014;SDS011;61787;42.022;23.078;2023-06-22T06:12:17;15.38;;;10.90;;
20014;SDS011;61787;42.022;23.078;2023-06-22T06:13:19;13.45;;;11.00;;